Erieville, New York
Current Conditions -  °F | °C
As of 6:54 AM on Thursday 23 Oct 2014 (Local Time) from KSYR Reporting Station
Light Rain Light Rain  
Wind Chill: 38°   Ceiling: 2900
Heat Index: 44°   Visibility: 10mi
Dew Point: 38°   Wind: 12mph
Humidity: 79%   Direction: 310°NW
Pressure: 30.01"   Gusts: NA
Location:  42.85°N, 75.76°W
Report Text: KSYR 231054Z 31010KT 10SM -RA BKN029 BKN037 07/03 A3001 RMK AO2 RAB45 SLP161 P0000 T00670033
Loading
Personal Weather Stations






























Interactive Weather Map
Tropical Storm Tracking
New forecast layout! Learn more

10-Day Weather Forecast

Advertisements
Track Severe Weather on mobile